JAC weather

Jackson Hole Airport
Jackson, Wyoming, United States

Public forecast

Using degrees Fahrenheit for public forecast. Weather courtesy of forecast.io.

METAR (pilot weather report)

Retrieved 2019/04/21 21:56 UTC (50 minutes ago):

KJAC 212156Z 02009KT 10SM -RA FEW024 OVC031 06/04 A2998 RMK AO2 SLP156 P0002 T00560044

TAF (pilot weather forecast)

Retrieved 2019/04/21 18:36 UTC (4 hours ago):

TAF KJAC 211734Z 2118/2218 03007KT 6SM -SHRA SCT025 OVC040 FM220200 02014G20KT 4SM -SHRASN BR SCT012 OVC025 FM221300 01008KT 6SM BR VCSH SCT030 BKN045 FM221600 01007KT P6SM SCT035 BKN060 AMD LTD TO CLD VIS AND WIND